createdAt,value
2018-04-18T00:00:10.488Z,23.00
2018-04-18T00:02:38.620Z,23.27
2018-04-18T00:05:06.771Z,20.52
2018-04-18T00:07:34.909Z,25.08
2018-04-18T00:10:03.073Z,23.70
2018-04-18T00:12:31.204Z,21.48
2018-04-18T00:14:59.363Z,17.83
2018-04-18T00:17:27.500Z,21.92
2018-04-18T00:19:55.658Z,22.60
2018-04-18T00:22:23.799Z,23.40
2018-04-18T00:24:51.964Z,23.58
2018-04-18T00:27:20.096Z,22.20
2018-04-18T00:29:48.256Z,24.80
2018-04-18T00:32:16.392Z,26.42
2018-04-18T00:34:44.556Z,24.48
2018-04-18T00:37:12.700Z,23.02
2018-04-18T00:39:40.867Z,22.98
2018-04-18T00:42:09.005Z,21.87
2018-04-18T00:44:37.165Z,22.75
2018-04-18T00:47:05.301Z,22.75
2018-04-18T00:49:33.468Z,27.73
2018-04-18T00:52:01.600Z,22.90
2018-04-18T00:54:29.757Z,25.55
2018-04-18T00:56:57.882Z,26.50
2018-04-18T00:59:26.040Z,25.98
2018-04-18T01:01:54.172Z,27.37
2018-04-18T01:04:22.338Z,25.33
2018-04-18T01:06:50.472Z,26.35
2018-04-18T01:09:18.646Z,24.98
2018-04-18T01:11:46.780Z,24.92
2018-04-18T01:14:14.941Z,30.00
2018-04-18T01:16:43.072Z,26.05
2018-04-18T01:19:11.232Z,26.27
2018-04-18T01:21:39.371Z,28.33
2018-04-18T01:24:07.541Z,28.52
2018-04-18T01:26:35.676Z,26.10
2018-04-18T01:29:03.835Z,29.10
2018-04-18T01:31:31.969Z,25.85
2018-04-18T01:34:00.128Z,28.23
2018-04-18T01:36:28.263Z,28.02
2018-04-18T01:38:56.428Z,30.15
2018-04-18T01:41:24.560Z,28.65
2018-04-18T01:43:52.725Z,26.55
2018-04-18T01:46:20.856Z,30.77
2018-04-18T01:48:49.017Z,28.12
2018-04-18T01:51:17.151Z,30.52
2018-04-18T01:53:45.308Z,30.75
2018-04-18T01:56:13.440Z,30.42
2018-04-18T01:58:41.612Z,29.92
2018-04-18T02:01:09.749Z,31.75
2018-04-18T02:03:37.932Z,33.92
2018-04-18T02:06:06.060Z,32.22
2018-04-18T02:08:34.977Z,33.78
2018-04-18T02:11:03.135Z,33.92
2018-04-18T02:13:31.268Z,33.63
2018-04-18T02:15:59.436Z,31.83
2018-04-18T02:18:27.568Z,25.75
2018-04-18T02:20:55.732Z,26.08
2018-04-18T02:23:23.865Z,26.15
2018-04-18T02:25:52.029Z,24.92
2018-04-18T02:28:20.164Z,31.70
2018-04-18T02:30:48.330Z,25.15
2018-04-18T02:33:16.468Z,24.40
2018-04-18T02:35:44.629Z,24.40
2018-04-18T02:38:12.761Z,24.40
2018-04-18T02:40:40.928Z,27.00
2018-04-18T02:43:09.066Z,24.12
2018-04-18T02:45:37.220Z,24.17
2018-04-18T02:48:05.355Z,24.75
2018-04-18T02:50:33.526Z,23.83
2018-04-18T02:53:01.660Z,23.23
2018-04-18T02:55:29.816Z,19.17
2018-04-18T02:57:57.952Z,22.52
2018-04-18T03:00:26.113Z,24.50
2018-04-18T03:02:54.239Z,23.87
2018-04-18T03:05:22.407Z,20.90
2018-04-18T03:07:50.538Z,19.40
2018-04-18T03:10:18.692Z,18.65
2018-04-18T03:12:46.828Z,19.23
2018-04-18T03:15:14.980Z,19.35
2018-04-18T03:17:43.116Z,19.17
2018-04-18T03:20:11.280Z,22.33
2018-04-18T03:22:39.421Z,21.20
2018-04-18T03:25:07.561Z,19.98
2018-04-18T03:27:35.720Z,22.20
2018-04-18T03:30:03.861Z,21.92
2018-04-18T03:32:32.017Z,20.77
2018-04-18T03:35:00.148Z,19.37
2018-04-18T03:37:28.314Z,19.90
2018-04-18T03:39:56.443Z,19.80
2018-04-18T03:42:24.601Z,20.10
2018-04-18T03:44:52.736Z,19.17
2018-04-18T03:47:20.897Z,19.30
2018-04-18T03:49:49.044Z,19.58
2018-04-18T03:52:17.204Z,20.23
2018-04-18T03:54:45.342Z,20.88
2018-04-18T03:57:13.513Z,20.95
2018-04-18T03:59:41.640Z,21.35
2018-04-18T04:02:09.797Z,19.75
2018-04-18T04:04:37.932Z,18.87
2018-04-18T04:07:06.096Z,19.70
2018-04-18T04:09:34.234Z,20.95
2018-04-18T04:12:02.392Z,19.30
2018-04-18T04:14:30.523Z,21.75
2018-04-18T04:17:10.561Z,18.40
2018-04-18T04:19:50.457Z,23.15
2018-04-18T04:22:30.284Z,20.90
2018-04-18T04:24:58.449Z,21.15
2018-04-18T04:27:26.594Z,20.98
2018-04-18T04:29:55.592Z,21.15
2018-04-18T04:32:23.752Z,18.98
2018-04-18T04:34:51.892Z,20.75
2018-04-18T04:37:20.060Z,20.27
2018-04-18T04:39:48.192Z,18.98
2018-04-18T04:42:16.353Z,21.77
2018-04-18T04:44:44.488Z,20.20
2018-04-18T04:47:12.651Z,19.45
2018-04-18T04:49:40.790Z,20.55
2018-04-18T04:52:08.955Z,21.73
2018-04-18T04:54:37.086Z,23.10
2018-04-18T04:57:05.251Z,22.27
2018-04-18T04:59:33.380Z,21.45
2018-04-18T05:02:01.541Z,23.17
2018-04-18T05:04:29.671Z,21.05
2018-04-18T05:06:57.857Z,22.00
2018-04-18T05:09:25.988Z,21.17
2018-04-18T05:11:54.148Z,22.08
2018-04-18T05:14:22.279Z,23.33
2018-04-18T05:16:50.443Z,23.08
2018-04-18T05:19:18.596Z,26.75
2018-04-18T05:21:46.771Z,25.67
2018-04-18T05:24:20.612Z,24.83
2018-04-18T05:26:48.772Z,24.63
2018-04-18T05:29:16.903Z,25.35
2018-04-18T05:31:45.069Z,25.27
2018-04-18T05:34:13.206Z,22.45
2018-04-18T05:36:41.364Z,21.75
2018-04-18T05:39:09.502Z,21.23
2018-04-18T05:41:37.665Z,18.85
2018-04-18T05:44:05.834Z,20.52
2018-04-18T05:46:33.970Z,18.20
2018-04-18T05:49:02.132Z,16.73
2018-04-18T05:51:30.264Z,16.30
2018-04-18T05:53:58.432Z,17.98
2018-04-18T05:56:26.564Z,16.37
2018-04-18T05:58:54.729Z,16.37
2018-04-18T06:01:22.869Z,14.60
2018-04-18T06:03:51.039Z,13.23
2018-04-18T06:06:19.230Z,14.38
2018-04-18T06:08:47.360Z,16.10
2018-04-18T06:11:15.598Z,15.60
2018-04-18T06:13:43.728Z,12.43
2018-04-18T06:16:11.881Z,17.08
2018-04-18T06:18:40.050Z,14.20
2018-04-18T06:21:08.205Z,15.45
2018-04-18T06:23:36.376Z,14.25
2018-04-18T06:26:04.527Z,12.98
2018-04-18T06:28:32.700Z,16.10
2018-04-18T06:31:00.851Z,15.32
2018-04-18T06:33:29.017Z,15.15
2018-04-18T06:35:57.158Z,14.38
2018-04-18T06:38:26.091Z,15.10
2018-04-18T06:40:54.228Z,14.30
2018-04-18T06:43:22.825Z,14.10
2018-04-18T06:45:50.995Z,15.20
2018-04-18T06:48:19.257Z,16.10
2018-04-18T06:50:48.392Z,17.40
2018-04-18T06:53:16.587Z,15.57
2018-04-18T06:55:45.182Z,16.80
2018-04-18T06:58:13.684Z,17.25
2018-04-18T07:00:42.756Z,15.70
2018-04-18T07:03:11.005Z,16.80
2018-04-18T07:05:39.180Z,18.08
2018-04-18T07:08:07.353Z,18.27
2018-04-18T07:10:35.694Z,16.95
2018-04-18T07:13:04.094Z,17.87
2018-04-18T07:15:32.667Z,19.45
2018-04-18T07:18:00.863Z,18.90
2018-04-18T07:20:29.192Z,19.20
2018-04-18T07:22:57.409Z,18.42
2018-04-18T07:25:25.807Z,20.93
2018-04-18T07:27:53.988Z,20.43
2018-04-18T07:30:22.156Z,21.20
2018-04-18T07:32:50.318Z,21.00
2018-04-18T07:35:18.497Z,21.00
2018-04-18T07:37:46.666Z,19.30
2018-04-18T07:40:14.832Z,22.33
2018-04-18T07:42:43.078Z,20.33
2018-04-18T07:45:11.303Z,20.80
2018-04-18T07:47:39.462Z,23.40
2018-04-18T07:50:07.635Z,23.10
2018-04-18T07:52:35.952Z,24.30
2018-04-18T07:55:04.321Z,25.10
2018-04-18T07:57:33.308Z,25.50
2018-04-18T08:00:01.721Z,25.17
2018-04-18T08:02:30.381Z,28.27
2018-04-18T08:04:59.471Z,27.30
2018-04-18T08:07:27.828Z,27.53
2018-04-18T08:09:56.387Z,28.40
2018-04-18T08:12:24.950Z,28.23
2018-04-18T08:14:53.112Z,29.50
2018-04-18T08:17:21.251Z,26.73
2018-04-18T08:19:49.796Z,26.00
2018-04-18T08:22:18.149Z,25.20
2018-04-18T08:24:46.313Z,24.73
2018-04-18T08:27:14.508Z,26.50
2018-04-18T08:29:43.450Z,25.37
2018-04-18T08:32:11.620Z,24.70
2018-04-18T08:34:39.782Z,24.33
2018-04-18T08:37:07.925Z,23.20
2018-04-18T08:39:36.852Z,23.07
2018-04-18T08:42:05.000Z,23.00
2018-04-18T08:44:33.167Z,24.03
2018-04-18T08:47:01.308Z,23.20
2018-04-18T08:49:29.521Z,23.77
2018-04-18T08:51:57.655Z,24.13
2018-04-18T08:54:25.820Z,22.50
2018-04-18T08:56:53.957Z,24.33
2018-04-18T08:59:22.120Z,24.67
2018-04-18T09:01:50.278Z,25.60
2018-04-18T09:04:18.488Z,24.33
2018-04-18T09:06:46.673Z,24.73
2018-04-18T09:09:14.844Z,25.77
2018-04-18T09:11:43.034Z,26.57
2018-04-18T09:14:11.221Z,24.73
2018-04-18T09:16:39.363Z,24.80
2018-04-18T09:19:07.528Z,25.20
2018-04-18T09:21:35.668Z,36.70
2018-04-18T09:24:04.005Z,35.77
2018-04-18T09:26:32.148Z,29.53
2018-04-18T09:29:00.331Z,25.23
2018-04-18T09:31:28.560Z,31.23
2018-04-18T09:33:57.495Z,26.53
2018-04-18T09:36:25.636Z,36.87
2018-04-18T09:38:53.809Z,26.20
2018-04-18T09:41:21.955Z,34.67
2018-04-18T09:43:50.125Z,27.40
2018-04-18T09:46:18.309Z,30.60
2018-04-18T09:48:46.461Z,31.40
2018-04-18T09:51:15.373Z,27.97
2018-04-18T09:53:43.564Z,31.73
2018-04-18T09:56:11.708Z,28.43
2018-04-18T09:58:39.858Z,29.60
2018-04-18T10:01:08.033Z,29.60
2018-04-18T10:03:36.177Z,30.00
2018-04-18T10:06:04.342Z,30.10
2018-04-18T10:08:32.488Z,28.67
2018-04-18T10:11:00.656Z,38.87
2018-04-18T10:13:28.800Z,35.80
2018-04-18T10:15:56.964Z,26.70
2018-04-18T10:18:25.580Z,26.63
2018-04-18T10:20:53.751Z,25.10
2018-04-18T10:23:21.891Z,25.17
2018-04-18T10:25:50.054Z,24.40
2018-04-18T10:28:18.202Z,20.37
2018-04-18T10:30:47.138Z,20.80
2018-04-18T10:33:15.290Z,38.63
2018-04-18T10:35:43.478Z,15.77
2018-04-18T10:38:11.680Z,15.83
2018-04-18T10:40:39.827Z,16.40
2018-04-18T10:43:07.970Z,20.80
2018-04-18T10:45:36.144Z,18.13
2018-04-18T10:48:04.286Z,16.50
2018-04-18T10:50:32.451Z,24.17
2018-04-18T10:53:00.594Z,24.00
2018-04-18T10:55:28.756Z,20.40
2018-04-18T10:57:56.897Z,17.80
2018-04-18T11:00:25.834Z,20.30
2018-04-18T11:02:53.979Z,15.70
2018-04-18T11:05:22.151Z,15.87
2018-04-18T11:07:50.299Z,13.00
2018-04-18T11:10:18.470Z,12.70
2018-04-18T11:12:46.614Z,12.73
2018-04-18T11:15:14.785Z,14.27
2018-04-18T11:17:42.933Z,12.97
2018-04-18T11:20:11.096Z,16.90
2018-04-18T11:22:39.241Z,13.80
2018-04-18T11:25:07.408Z,33.73
2018-04-18T11:27:35.543Z,12.20
2018-04-18T11:30:03.714Z,11.73
2018-04-18T11:32:31.861Z,12.53
2018-04-18T11:35:00.037Z,11.60
2018-04-18T11:37:28.191Z,17.90
2018-04-18T11:39:57.122Z,9.70
2018-04-18T11:42:25.262Z,9.47
2018-04-18T11:44:54.197Z,9.10
2018-04-18T11:47:22.368Z,9.20
2018-04-18T11:49:50.536Z,11.03
2018-04-18T11:52:18.673Z,11.27
2018-04-18T11:54:47.576Z,9.67
2018-04-18T11:57:15.737Z,12.20
2018-04-18T11:59:44.641Z,9.70
2018-04-18T12:02:12.824Z,9.50
2018-04-18T12:04:40.965Z,9.50
2018-04-18T12:07:10.134Z,8.77
2018-04-18T12:09:38.273Z,10.00
2018-04-18T12:12:06.436Z,8.33
2018-04-18T12:14:34.641Z,9.83
2018-04-18T12:17:02.806Z,10.00
2018-04-18T12:19:30.946Z,7.30
2018-04-18T12:21:59.892Z,6.50
2018-04-18T12:24:28.056Z,6.57
2018-04-18T12:26:56.234Z,9.43
2018-04-18T12:29:24.380Z,16.17
2018-04-18T12:31:52.547Z,6.77
2018-04-18T12:34:20.696Z,8.20
2018-04-18T12:36:48.857Z,7.20
2018-04-18T12:39:16.997Z,7.17
2018-04-18T12:41:45.168Z,6.53
2018-04-18T12:44:13.306Z,7.73
2018-04-18T12:46:41.469Z,6.00
2018-04-18T12:49:10.387Z,6.40
2018-04-18T12:51:38.604Z,5.23
2018-04-18T12:54:06.737Z,5.73
2018-04-18T12:56:34.897Z,6.10
2018-04-18T12:59:03.033Z,5.57
2018-04-18T13:01:31.188Z,5.27
2018-04-18T13:03:59.325Z,5.80
2018-04-18T13:06:27.529Z,4.60
2018-04-18T13:08:55.650Z,5.67
2018-04-18T13:11:24.580Z,5.10
2018-04-18T13:13:52.721Z,6.37
2018-04-18T13:16:20.936Z,6.30
2018-04-18T13:18:49.078Z,7.70
2018-04-18T13:21:17.257Z,7.17
2018-04-18T13:23:45.393Z,5.97
2018-04-18T13:26:13.557Z,6.47
2018-04-18T13:28:41.728Z,5.83
2018-04-18T13:31:09.864Z,5.47
2018-04-18T13:33:38.030Z,5.80
2018-04-18T13:36:06.165Z,6.83
2018-04-18T13:38:34.323Z,6.80
2018-04-18T13:41:02.461Z,7.43
2018-04-18T13:43:30.622Z,6.33
2018-04-18T13:45:58.769Z,6.20
2018-04-18T13:48:26.937Z,6.60
2018-04-18T13:50:55.869Z,5.73
2018-04-18T13:53:24.020Z,5.67
2018-04-18T13:55:52.201Z,5.60
2018-04-18T13:58:20.349Z,4.83
2018-04-18T14:00:48.498Z,6.30
2018-04-18T14:03:16.661Z,6.90
2018-04-18T14:05:44.805Z,6.93
2018-04-18T14:08:12.970Z,5.90
2018-04-18T14:10:41.113Z,5.83
2018-04-18T14:13:09.272Z,5.40
2018-04-18T14:15:37.409Z,6.73
2018-04-18T14:18:05.568Z,6.43
2018-04-18T14:20:33.700Z,5.77
2018-04-18T14:23:01.862Z,4.80
2018-04-18T14:25:29.996Z,5.73
2018-04-18T14:27:58.180Z,5.90
2018-04-18T14:30:26.320Z,6.40
2018-04-18T14:32:55.253Z,7.70
2018-04-18T14:35:23.386Z,6.30
2018-04-18T14:37:51.546Z,6.60
2018-04-18T14:40:20.453Z,6.60
2018-04-18T14:42:48.617Z,6.73
2018-04-18T14:45:17.524Z,6.30
2018-04-18T14:47:45.681Z,6.47
2018-04-18T14:50:14.578Z,7.37
2018-04-18T14:52:42.741Z,6.90
2018-04-18T14:55:11.662Z,8.80
2018-04-18T14:57:39.822Z,8.70
2018-04-18T15:00:07.961Z,8.30
2018-04-18T15:02:36.131Z,5.90
2018-04-18T15:05:04.273Z,7.47
2018-04-18T15:07:32.444Z,7.50
2018-04-18T15:10:00.581Z,8.27
2018-04-18T15:12:29.505Z,8.10
2018-04-18T15:14:57.649Z,7.80
2018-04-18T15:17:25.823Z,8.33
2018-04-18T15:19:53.960Z,7.23
2018-04-18T15:22:22.119Z,7.23
2018-04-18T15:24:50.266Z,7.93
2018-04-18T15:27:18.438Z,6.23
2018-04-18T15:29:46.573Z,6.63
2018-04-18T15:32:15.501Z,6.50
2018-04-18T15:34:43.640Z,7.20
2018-04-18T15:37:12.567Z,6.90
2018-04-18T15:39:40.701Z,6.80
2018-04-18T15:42:08.857Z,7.80
2018-04-18T15:44:37.000Z,5.60
2018-04-18T15:47:05.176Z,6.93
2018-04-18T15:49:33.314Z,6.63
2018-04-18T15:52:02.238Z,6.50
2018-04-18T15:54:30.374Z,6.90
2018-04-18T15:56:59.304Z,6.37
2018-04-18T15:59:27.442Z,7.47
2018-04-18T16:01:56.402Z,7.33
2018-04-18T16:04:24.560Z,5.93
2018-04-18T16:06:52.708Z,6.77
2018-04-18T16:09:20.872Z,7.53
2018-04-18T16:11:49.207Z,10.17
2018-04-18T16:14:17.396Z,10.73
2018-04-18T16:16:46.345Z,11.40
2018-04-18T16:19:14.508Z,9.50
2018-04-18T16:21:42.660Z,10.83
2018-04-18T16:24:11.066Z,10.00
2018-04-18T16:26:39.251Z,10.77
2018-04-18T16:29:19.116Z,11.23
2018-04-18T16:31:47.258Z,11.40
2018-04-18T16:34:15.419Z,10.47
2018-04-18T16:36:43.581Z,11.10
2018-04-18T16:39:11.745Z,12.00
2018-04-18T16:41:39.888Z,12.47
2018-04-18T16:44:08.060Z,9.90
2018-04-18T16:46:36.232Z,10.57
2018-04-18T16:49:04.393Z,11.10
2018-04-18T16:51:32.538Z,10.47
2018-04-18T16:54:00.705Z,10.57
2018-04-18T16:56:28.856Z,10.07
2018-04-18T16:58:57.019Z,10.83
2018-04-18T17:01:25.941Z,11.50
2018-04-18T17:03:54.100Z,9.13
2018-04-18T17:06:22.261Z,9.43
2018-04-18T17:08:51.275Z,10.73
2018-04-18T17:11:19.436Z,11.00
2018-04-18T17:13:47.620Z,10.67
2018-04-18T17:16:15.769Z,10.20
2018-04-18T17:18:44.700Z,11.40
2018-04-18T17:21:12.845Z,10.50
2018-04-18T17:23:41.785Z,8.57
2018-04-18T17:26:09.961Z,10.33
2018-04-18T17:28:38.189Z,9.20
2018-04-18T17:31:06.364Z,10.30
2018-04-18T17:33:34.555Z,9.67
2018-04-18T17:36:02.736Z,10.30
2018-04-18T17:38:30.897Z,11.60
2018-04-18T17:40:59.099Z,9.33
2018-04-18T17:43:27.256Z,7.73
2018-04-18T17:45:55.428Z,6.63
2018-04-18T17:48:23.578Z,6.47
2018-04-18T17:50:51.750Z,5.93
2018-04-18T17:53:20.865Z,5.30
2018-04-18T17:55:49.151Z,5.43
2018-04-18T17:58:17.320Z,4.62
2018-04-18T18:00:46.492Z,5.83
2018-04-18T18:03:15.435Z,6.43
2018-04-18T18:05:43.617Z,6.65
2018-04-18T18:08:11.787Z,7.03
2018-04-18T18:10:39.966Z,7.28
2018-04-18T18:13:08.145Z,7.35
2018-04-18T18:15:36.329Z,6.40
2018-04-18T18:18:04.488Z,6.10
2018-04-18T18:20:32.663Z,6.72
2018-04-18T18:23:00.828Z,10.35
2018-04-18T18:25:29.003Z,10.45
2018-04-18T18:27:57.159Z,9.10
2018-04-18T18:30:25.323Z,9.40
2018-04-18T18:32:53.477Z,10.15
2018-04-18T18:35:21.668Z,10.57
2018-04-18T18:37:49.821Z,9.73
2018-04-18T18:40:18.755Z,10.73
2018-04-18T18:42:46.899Z,11.02
2018-04-18T18:45:15.115Z,14.02
2018-04-18T18:47:43.285Z,15.48
2018-04-18T18:50:11.466Z,12.55
2018-04-18T18:52:39.621Z,12.20
2018-04-18T18:55:07.894Z,10.77
2018-04-18T18:57:36.036Z,10.60
2018-04-18T19:00:04.269Z,11.50
2018-04-18T19:02:32.484Z,10.73
2018-04-18T19:05:00.664Z,10.00
2018-04-18T19:07:28.827Z,10.88
2018-04-18T19:09:57.066Z,10.88
2018-04-18T19:12:25.273Z,14.40
2018-04-18T19:14:54.273Z,14.55
2018-04-18T19:17:23.199Z,10.95
2018-04-18T19:19:51.450Z,10.45
2018-04-18T19:22:19.704Z,12.15
2018-04-18T19:24:47.896Z,11.07
2018-04-18T19:27:16.048Z,12.77
2018-04-18T19:29:44.247Z,11.30
2018-04-18T19:32:12.424Z,11.00
2018-04-18T19:34:40.634Z,9.55
2018-04-18T19:37:08.807Z,9.52
2018-04-18T19:39:36.990Z,10.38
2018-04-18T19:42:05.225Z,9.75
2018-04-18T19:44:33.544Z,10.70
2018-04-18T19:47:01.731Z,10.38
2018-04-18T19:49:29.880Z,11.38
2018-04-18T19:51:58.050Z,10.77
2018-04-18T19:54:26.221Z,9.25
2018-04-18T19:56:54.400Z,11.90
2018-04-18T19:59:22.545Z,10.48
2018-04-18T20:01:50.722Z,11.30
2018-04-18T20:04:18.878Z,12.30
2018-04-18T20:06:47.048Z,11.12
2018-04-18T20:09:15.215Z,12.00
2018-04-18T20:11:44.149Z,12.02
2018-04-18T20:14:12.324Z,12.68
2018-04-18T20:16:40.498Z,11.73
2018-04-18T20:19:08.642Z,13.40
2018-04-18T20:21:36.819Z,12.15
2018-04-18T20:24:04.957Z,13.02
2018-04-18T20:26:33.156Z,13.70
2018-04-18T20:29:01.318Z,12.30
2018-04-18T20:31:30.260Z,11.12
2018-04-18T20:33:58.398Z,11.30
2018-04-18T20:36:27.334Z,12.82
2018-04-18T20:38:55.527Z,13.25
2018-04-18T20:41:23.718Z,13.02
2018-04-18T20:43:51.871Z,13.80
2018-04-18T20:46:20.044Z,14.38
2018-04-18T20:48:48.180Z,13.73
2018-04-18T20:51:16.355Z,13.27
2018-04-18T20:53:44.500Z,15.00
2018-04-18T20:56:13.446Z,12.43
2018-04-18T20:58:41.596Z,13.75
2018-04-18T21:01:09.740Z,12.50
2018-04-18T21:03:37.904Z,13.10
2018-04-18T21:06:06.044Z,12.88
2018-04-18T21:08:34.215Z,14.10
2018-04-18T21:11:02.360Z,14.18
2018-04-18T21:13:30.528Z,13.70
2018-04-18T21:15:58.669Z,15.60
2018-04-18T21:18:26.866Z,16.80
2018-04-18T21:20:55.008Z,14.65
2018-04-18T21:23:23.184Z,14.00
2018-04-18T21:25:51.318Z,14.20
2018-04-18T21:28:19.487Z,15.20
2018-04-18T21:30:47.631Z,16.83
2018-04-18T21:33:15.801Z,13.13
2018-04-18T21:35:44.704Z,15.20
2018-04-18T21:38:12.870Z,15.10
2018-04-18T21:40:41.767Z,14.20
2018-04-18T21:43:09.934Z,16.45
2018-04-18T21:45:38.842Z,15.95
2018-04-18T21:48:07.007Z,13.07
2018-04-18T21:50:35.173Z,14.98
2018-04-18T21:53:03.336Z,16.23
2018-04-18T21:55:31.490Z,16.08
2018-04-18T21:57:59.660Z,16.50
2018-04-18T22:00:27.800Z,15.18
2018-04-18T22:02:55.968Z,15.75
2018-04-18T22:05:24.111Z,14.65
2018-04-18T22:07:53.056Z,15.15
2018-04-18T22:10:21.209Z,15.50
2018-04-18T22:12:49.372Z,16.98
2018-04-18T22:15:17.509Z,17.55
2018-04-18T22:17:45.700Z,20.92
2018-04-18T22:20:14.617Z,19.23
2018-04-18T22:22:42.783Z,19.90
2018-04-18T22:25:10.920Z,18.75
2018-04-18T22:27:39.108Z,18.40
2018-04-18T22:30:07.252Z,19.90
2018-04-18T22:32:35.393Z,18.42
2018-04-18T22:35:03.569Z,18.77
2018-04-18T22:37:31.715Z,19.87
2018-04-18T22:39:59.881Z,18.70
2018-04-18T22:42:28.781Z,17.35
2018-04-18T22:44:56.948Z,15.88
2018-04-18T22:47:25.092Z,17.73
2018-04-18T22:49:53.290Z,18.35
2018-04-18T22:52:21.433Z,16.17
2018-04-18T22:54:49.609Z,18.23
2018-04-18T22:57:17.756Z,19.62
2018-04-18T22:59:45.938Z,17.55
2018-04-18T23:02:14.084Z,18.98
2018-04-18T23:04:42.252Z,20.33
2018-04-18T23:07:10.389Z,19.37
2018-04-18T23:09:38.559Z,17.55
2018-04-18T23:12:06.697Z,20.05
2018-04-18T23:14:34.864Z,22.37
2018-04-18T23:17:03.003Z,18.62
2018-04-18T23:19:31.164Z,19.95
2018-04-18T23:22:00.111Z,16.37
2018-04-18T23:24:28.266Z,14.25
2018-04-18T23:26:56.429Z,17.27
2018-04-18T23:29:24.585Z,20.85
2018-04-18T23:31:52.780Z,19.20
2018-04-18T23:34:20.956Z,19.98
2018-04-18T23:36:49.140Z,21.50
2018-04-18T23:39:17.277Z,22.60
2018-04-18T23:41:46.212Z,21.62
2018-04-18T23:44:14.348Z,22.15
2018-04-18T23:46:43.273Z,19.00
2018-04-18T23:49:11.411Z,20.35
2018-04-18T23:51:40.346Z,20.17
2018-04-18T23:54:08.488Z,21.20
2018-04-18T23:56:36.661Z,23.10
2018-04-18T23:59:04.795Z,20.55
